Time;durP1;ratioP1;P1;durP2;ratioP2;P2;SDS_P1;SDS_P2;PMS_P1;PMS_P2;Temp;Humidity;BMP_temperature;BMP_pressure;BME280_temperature;BME280_humidity;BME280_pressure;Samples;Min_cycle;Max_cycle;Signal;HPM_P1;HPM_P2
2022/12/05 00:01:29;;;;;;;;;7.75;7.75;;;;;;;;5071329;28;11413;-76
2022/12/05 00:03:55;;;;;;;;;18.00;16.75;;;;;;;;5072833;28;11360;-76
2022/12/05 00:06:21;;;;;;;;;28.50;26.00;;;;;;;;5072115;28;11617;-76
2022/12/05 00:08:47;;;;;;;;;34.00;30.00;;;;;;;;5072464;28;11519;-75
2022/12/05 00:11:13;;;;;;;;;5.00;2.50;;;;;;;;5072500;28;11545;-75
2022/12/05 00:13:39;;;;;;;;;37.00;36.50;;;;;;;;5072570;28;8794;-76
2022/12/05 00:16:12;;;;;;;;;36.00;32.75;;;;;;;;5070941;28;11520;-76
2022/12/05 00:18:38;;;;;;;;;30.75;29.75;;;;;;;;5072311;28;11558;-76
2022/12/05 00:21:03;;;;;;;;;28.75;28.00;;;;;;;;5072380;28;11513;-77
2022/12/05 00:23:29;;;;;;;;;25.50;25.25;;;;;;;;5070308;28;8825;-77
2022/12/05 00:25:54;;;;;;;;;23.25;22.25;;;;;;;;5071938;28;8802;-76
2022/12/05 00:28:19;;;;;;;;;17.75;14.25;;;;;;;;5072067;28;8821;-77
2022/12/05 00:30:44;;;;;;;;;16.00;15.25;;;;;;;;5072352;28;8826;-76
2022/12/05 00:33:10;;;;;;;;;40.75;37.50;;;;;;;;5072079;28;8793;-76
2022/12/05 00:35:35;;;;;;;;;43.00;39.00;;;;;;;;5070719;28;8838;-76
2022/12/05 00:38:00;;;;;;;;;28.25;26.50;;;;;;;;5071858;28;8806;-76
2022/12/05 00:40:25;;;;;;;;;18.75;18.00;;;;;;;;5070692;28;8794;-76
2022/12/05 00:42:51;;;;;;;;;14.50;14.50;;;;;;;;5071727;28;8902;-76
2022/12/05 00:45:16;;;;;;;;;17.25;13.75;;;;;;;;5070364;28;8818;-76
2022/12/05 00:47:41;;;;;;;;;19.25;14.25;;;;;;;;5070516;28;8835;-76
2022/12/05 00:50:07;;;;;;;;;15.25;15.25;;;;;;;;5071895;28;8791;-76
2022/12/05 00:52:32;;;;;;;;;18.50;16.00;;;;;;;;5071621;28;8806;-76
2022/12/05 00:54:57;;;;;;;;;18.00;16.25;;;;;;;;5087253;28;8949;-76
2022/12/05 00:57:23;;;;;;;;;20.75;16.50;;;;;;;;5071597;28;8798;-76
2022/12/05 00:59:48;;;;;;;;;18.75;17.50;;;;;;;;5071996;28;9010;-76
2022/12/05 01:02:13;;;;;;;;;14.75;12.25;;;;;;;;5071269;28;8799;-76
2022/12/05 01:04:38;;;;;;;;;22.75;16.75;;;;;;;;5071374;28;8799;-76
2022/12/05 01:07:04;;;;;;;;;16.75;16.75;;;;;;;;5071428;28;8794;-76
2022/12/05 01:09:29;;;;;;;;;18.50;16.25;;;;;;;;5071222;28;8925;-76
2022/12/05 01:11:54;;;;;;;;;16.00;14.50;;;;;;;;5071310;28;8936;-76
2022/12/05 01:14:20;;;;;;;;;18.00;15.00;;;;;;;;5071622;28;8779;-76
2022/12/05 01:16:47;;;;;;;;;15.25;13.75;;;;;;;;5071339;28;8875;-76
2022/12/05 01:19:13;;;;;;;;;20.75;18.25;;;;;;;;5071270;28;11503;-75
2022/12/05 01:21:39;;;;;;;;;22.00;18.50;;;;;;;;5070683;28;11525;-75
2022/12/05 01:24:05;;;;;;;;;18.00;18.00;;;;;;;;5069518;28;11510;-76
2022/12/05 01:26:30;;;;;;;;;14.00;14.00;;;;;;;;5070880;28;8787;-75
2022/12/05 01:28:55;;;;;;;;;18.50;17.50;;;;;;;;5071211;28;8887;-75
2022/12/05 01:31:22;;;;;;;;;13.00;11.25;;;;;;;;5071079;28;8841;-75
2022/12/05 01:33:47;;;;;;;;;15.50;13.50;;;;;;;;5069183;28;8807;-75
2022/12/05 01:36:15;;;;;;;;;14.00;13.75;;;;;;;;5070059;28;11528;-75
2022/12/05 01:38:44;;;;;;;;;16.00;14.00;;;;;;;;5070746;28;8817;-75
2022/12/05 01:41:21;;;;;;;;;16.00;16.00;;;;;;;;5070257;28;11527;-74
2022/12/05 01:43:58;;;;;;;;;13.50;13.00;;;;;;;;5071005;28;11534;-74
2022/12/05 01:46:24;;;;;;;;;13.00;12.00;;;;;;;;5070549;28;11637;-75
2022/12/05 01:48:52;;;;;;;;;15.00;12.00;;;;;;;;5070524;28;12313;-75
2022/12/05 01:51:17;;;;;;;;;13.75;11.75;;;;;;;;5070511;28;11490;-75
2022/12/05 01:53:43;;;;;;;;;15.75;14.00;;;;;;;;5070477;28;11559;-76
2022/12/05 01:56:08;;;;;;;;;16.25;11.75;;;;;;;;5070715;28;9599;-76
2022/12/05 01:58:36;;;;;;;;;16.25;12.75;;;;;;;;5071037;28;8795;-76
2022/12/05 02:01:01;;;;;;;;;14.50;12.25;;;;;;;;5070147;28;8810;-76
2022/12/05 02:03:27;;;;;;;;;11.00;11.00;;;;;;;;5070307;28;11672;-76
2022/12/05 02:05:54;;;;;;;;;13.25;12.25;;;;;;;;5070437;28;8787;-76
2022/12/05 02:08:19;;;;;;;;;10.00;10.00;;;;;;;;5070230;28;8841;-76
2022/12/05 02:10:46;;;;;;;;;10.50;9.00;;;;;;;;5070223;28;11454;-76
2022/12/05 02:13:35;;;;;;;;;12.00;11.00;;;;;;;;5070337;28;8790;-76
2022/12/05 02:16:08;;;;;;;;;12.75;11.00;;;;;;;;5047178;28;11492;-76
2022/12/05 02:18:34;;;;;;;;;11.00;10.50;;;;;;;;5047366;28;11497;-75
2022/12/05 02:21:12;;;;;;;;;18.50;16.50;;;;;;;;5064274;28;11551;-76
2022/12/05 02:23:56;;;;;;;;;18.75;18.50;;;;;;;;5047655;28;8802;-76
2022/12/05 02:26:33;;;;;;;;;20.00;19.00;;;;;;;;5047524;28;11600;-76
2022/12/05 02:28:59;;;;;;;;;15.75;15.75;;;;;;;;5047591;28;11520;-76
2022/12/05 02:31:33;;;;;;;;;18.00;17.00;;;;;;;;5030820;28;11481;-76
2022/12/05 02:34:04;;;;;;;;;17.75;16.00;;;;;;;;5030762;28;8822;-76
2022/12/05 02:36:41;;;;;;;;;12.75;12.00;;;;;;;;5046873;28;11731;-76
2022/12/05 15:51:10;;;;;;;;;3.00;3.00;;;;;;;;5104890;27;14220;-75
2022/12/05 15:53:46;;;;;;;;;1.75;1.75;;;;;;;;5108628;28;11421;-84
2022/12/05 15:56:11;;;;;;;;;1.75;1.75;;;;;;;;5113859;27;8781;-84
2022/12/05 15:58:39;;;;;;;;;2.00;2.00;;;;;;;;5118114;27;12174;-75
2022/12/05 16:01:34;;;;;;;;;2.00;2.00;;;;;;;;5112620;27;8930;-74
2022/12/05 16:04:11;;;;;;;;;3.25;1.50;;;;;;;;5074400;28;11508;-74
2022/12/05 16:06:40;;;;;;;;;3.50;3.50;;;;;;;;5088839;28;12135;-73
2022/12/05 16:09:07;;;;;;;;;5.00;2.00;;;;;;;;5082444;28;11379;-72
2022/12/05 16:11:32;;;;;;;;;5.00;3.00;;;;;;;;5084346;28;11332;-73
2022/12/05 16:14:00;;;;;;;;;5.50;3.00;;;;;;;;5080998;28;11388;-72
2022/12/05 16:16:28;;;;;;;;;5.50;4.00;;;;;;;;5094138;28;8796;-71
2022/12/05 16:18:57;;;;;;;;;3.00;3.00;;;;;;;;5104660;28;11347;-71
2022/12/05 16:21:26;;;;;;;;;6.00;2.25;;;;;;;;5104335;28;11607;-73
2022/12/05 16:23:58;;;;;;;;;1.75;1.75;;;;;;;;5104427;28;11438;-71
2022/12/05 16:26:23;;;;;;;;;3.00;2.00;;;;;;;;5095599;28;11439;-73
2022/12/05 16:28:59;;;;;;;;;3.50;2.75;;;;;;;;5084719;28;12151;-73
2022/12/05 16:31:25;;;;;;;;;9.50;1.50;;;;;;;;5100984;28;8827;-72
2022/12/05 16:34:04;;;;;;;;;1.50;0.00;;;;;;;;5083911;28;11444;-73
2022/12/05 16:36:30;;;;;;;;;3.00;2.00;;;;;;;;5089425;28;8886;-75
2022/12/05 16:39:05;;;;;;;;;2.50;2.00;;;;;;;;5103752;28;11340;-74
2022/12/05 16:41:35;;;;;;;;;3.00;3.00;;;;;;;;5125828;27;8916;-78
2022/12/05 16:44:00;;;;;;;;;2.50;2.50;;;;;;;;5127634;27;11401;-77
2022/12/05 16:46:39;;;;;;;;;2.75;2.75;;;;;;;;5124352;27;11360;-77
2022/12/05 16:49:19;;;;;;;;;3.00;3.00;;;;;;;;5126938;27;9757;-76
2022/12/05 16:51:52;;;;;;;;;0.00;0.00;;;;;;;;5127025;27;11388;-75
2022/12/05 16:54:17;;;;;;;;;5.25;5.00;;;;;;;;5126608;27;11395;-76
2022/12/05 16:56:43;;;;;;;;;3.00;1.75;;;;;;;;5021302;27;11427;-78
2022/12/05 16:59:20;;;;;;;;;3.00;3.00;;;;;;;;5040850;28;9545;-76
2022/12/05 17:01:45;;;;;;;;;3.00;3.00;;;;;;;;5031012;28;8859;-78
2022/12/05 17:04:10;;;;;;;;;3.00;3.00;;;;;;;;5032398;28;12300;-74
2022/12/05 17:06:35;;;;;;;;;3.00;3.00;;;;;;;;5031464;28;8892;-73
2022/12/05 17:09:01;;;;;;;;;4.00;4.00;;;;;;;;5032078;28;8846;-72
2022/12/05 17:11:31;;;;;;;;;3.00;2.25;;;;;;;;5032199;28;9637;-75
2022/12/05 17:13:57;;;;;;;;;3.50;3.50;;;;;;;;5032588;28;8806;-74
2022/12/05 17:16:23;;;;;;;;;3.25;1.75;;;;;;;;5034939;28;11476;-74
2022/12/05 17:18:48;;;;;;;;;2.00;2.00;;;;;;;;5032675;28;9037;-72
2022/12/05 17:21:15;;;;;;;;;1.75;1.00;;;;;;;;5041647;28;12259;-73
2022/12/05 17:23:41;;;;;;;;;1.25;1.25;;;;;;;;5052179;28;8816;-71
2022/12/05 17:26:08;;;;;;;;;2.00;2.00;;;;;;;;5038313;28;12188;-79
2022/12/05 17:28:33;;;;;;;;;2.00;2.00;;;;;;;;5032879;28;8813;-75
2022/12/05 17:30:58;;;;;;;;;2.00;2.00;;;;;;;;5030399;28;11461;-74
2022/12/05 17:33:24;;;;;;;;;1.25;1.00;;;;;;;;5031074;28;8820;-78
2022/12/05 17:35:50;;;;;;;;;1.00;1.00;;;;;;;;5023437;28;8872;-77
2022/12/05 17:38:16;;;;;;;;;2.00;2.00;;;;;;;;5051984;28;8793;-75
2022/12/05 17:40:41;;;;;;;;;5.00;2.25;;;;;;;;5038779;28;11452;-77
2022/12/05 17:43:08;;;;;;;;;5.25;2.00;;;;;;;;5031046;28;8801;-76
2022/12/05 17:45:34;;;;;;;;;1.25;1.00;;;;;;;;5029657;28;8823;-77
2022/12/05 17:47:59;;;;;;;;;3.25;1.00;;;;;;;;5030738;28;11411;-78
2022/12/05 17:50:24;;;;;;;;;3.00;2.00;;;;;;;;5030679;28;8928;-74
2022/12/05 17:52:53;;;;;;;;;1.50;1.50;;;;;;;;5030004;28;8808;-74
2022/12/05 17:55:25;;;;;;;;;2.25;1.50;;;;;;;;5029878;28;8865;-77
2022/12/05 17:57:51;;;;;;;;;2.50;2.00;;;;;;;;5028196;28;11522;-75
2022/12/05 18:00:17;;;;;;;;;3.00;2.50;;;;;;;;5028369;28;11480;-74
2022/12/05 18:02:43;;;;;;;;;14.25;7.75;;;;;;;;5013840;28;11425;-75
2022/12/05 18:05:09;;;;;;;;;5.75;5.75;;;;;;;;5018275;28;8906;-78
2022/12/05 18:07:35;;;;;;;;;5.00;5.00;;;;;;;;5025307;28;11426;-75
2022/12/05 18:10:00;;;;;;;;;2.50;2.50;;;;;;;;5029548;28;11455;-76
2022/12/05 18:12:26;;;;;;;;;2.00;2.00;;;;;;;;5029203;28;8807;-77
2022/12/05 18:14:51;;;;;;;;;5.00;2.00;;;;;;;;5029652;28;8808;-76
2022/12/05 18:17:16;;;;;;;;;2.00;2.00;;;;;;;;5027363;28;8788;-75
2022/12/05 18:19:42;;;;;;;;;5.00;5.00;;;;;;;;5042489;28;8892;-78
2022/12/05 18:22:07;;;;;;;;;5.00;3.00;;;;;;;;5029910;28;9556;-78
2022/12/05 18:24:32;;;;;;;;;3.00;3.00;;;;;;;;5028826;28;9546;-75
2022/12/05 18:26:58;;;;;;;;;4.50;3.00;;;;;;;;5030270;28;8796;-73
2022/12/05 18:29:23;;;;;;;;;4.50;2.75;;;;;;;;5037970;28;9037;-75
2022/12/05 18:31:48;;;;;;;;;6.50;6.00;;;;;;;;5048439;28;8805;-79
2022/12/05 18:34:14;;;;;;;;;6.50;5.00;;;;;;;;5050027;28;8843;-76
2022/12/05 18:36:39;;;;;;;;;4.50;2.75;;;;;;;;5050013;28;8816;-76
2022/12/05 18:39:05;;;;;;;;;3.00;2.00;;;;;;;;5050868;28;8794;-87
2022/12/05 18:41:30;;;;;;;;;2.00;2.00;;;;;;;;5041065;28;8821;-79
2022/12/05 18:43:56;;;;;;;;;5.25;2.25;;;;;;;;5028810;28;8864;-74
2022/12/05 18:46:21;;;;;;;;;5.25;2.00;;;;;;;;5042645;28;8789;-74
2022/12/05 18:48:47;;;;;;;;;5.00;5.00;;;;;;;;5050414;28;8785;-78
2022/12/05 18:51:14;;;;;;;;;3.00;3.00;;;;;;;;5047899;28;8831;-82
2022/12/05 18:53:39;;;;;;;;;2.00;1.00;;;;;;;;5049373;28;11418;-82
2022/12/05 18:56:05;;;;;;;;;6.00;3.50;;;;;;;;5050193;28;11434;-78
2022/12/05 18:58:31;;;;;;;;;2.75;2.75;;;;;;;;5028542;28;8808;-76
2022/12/05 19:01:07;;;;;;;;;3.00;2.00;;;;;;;;5028984;28;11697;-79
2022/12/05 19:03:32;;;;;;;;;2.00;2.00;;;;;;;;5028328;28;8800;-75
2022/12/05 19:05:58;;;;;;;;;5.00;2.00;;;;;;;;5029326;28;11655;-76
2022/12/05 19:08:23;;;;;;;;;2.75;1.25;;;;;;;;5028578;28;9964;-78
2022/12/05 19:10:48;;;;;;;;;9.00;6.00;;;;;;;;5026523;28;8936;-78
2022/12/05 19:13:18;;;;;;;;;6.75;4.50;;;;;;;;5029585;28;8780;-74
2022/12/05 19:15:43;;;;;;;;;2.50;1.50;;;;;;;;5036405;28;9050;-74
2022/12/05 19:18:08;;;;;;;;;6.25;2.00;;;;;;;;5049389;28;11405;-76
2022/12/05 19:20:34;;;;;;;;;2.50;2.50;;;;;;;;5049650;28;8901;-75
2022/12/05 19:22:59;;;;;;;;;4.25;3.00;;;;;;;;5050131;28;8801;-73
2022/12/05 19:25:24;;;;;;;;;5.75;5.00;;;;;;;;5049986;28;8919;-77
2022/12/05 19:27:50;;;;;;;;;2.75;1.25;;;;;;;;5050727;28;8851;-78
2022/12/05 19:30:15;;;;;;;;;2.50;2.50;;;;;;;;5050629;28;8797;-81
2022/12/05 19:32:40;;;;;;;;;2.00;2.00;;;;;;;;5050265;28;8890;-75
2022/12/05 19:35:06;;;;;;;;;4.75;2.50;;;;;;;;5037576;28;8857;-78
2022/12/05 19:37:31;;;;;;;;;3.00;2.00;;;;;;;;5010299;28;8957;-75
2022/12/05 19:39:56;;;;;;;;;4.75;2.50;;;;;;;;5021008;28;8820;-74
2022/12/05 19:42:22;;;;;;;;;5.75;2.00;;;;;;;;5018310;28;8806;-78
2022/12/05 19:44:48;;;;;;;;;4.75;3.50;;;;;;;;5020727;28;9588;-78
2022/12/05 19:47:13;;;;;;;;;4.00;3.50;;;;;;;;5022825;28;8810;-77
2022/12/05 19:49:38;;;;;;;;;3.00;3.00;;;;;;;;5020292;28;11518;-76
2022/12/05 19:52:04;;;;;;;;;3.00;3.00;;;;;;;;5018968;28;8877;-74
2022/12/05 19:54:29;;;;;;;;;3.50;3.50;;;;;;;;5019437;28;8888;-84
2022/12/05 19:56:57;;;;;;;;;4.00;3.00;;;;;;;;5015910;28;8933;-75
2022/12/05 19:59:22;;;;;;;;;3.50;3.50;;;;;;;;5019535;28;8868;-76
2022/12/05 20:01:47;;;;;;;;;5.00;5.00;;;;;;;;5016879;28;11576;-78
2022/12/05 20:04:14;;;;;;;;;10.50;6.00;;;;;;;;5016785;28;8861;-76
2022/12/05 20:06:41;;;;;;;;;5.75;5.00;;;;;;;;5017603;28;8811;-76
2022/12/05 20:09:07;;;;;;;;;8.25;6.50;;;;;;;;5016749;28;11449;-74
2022/12/05 20:11:33;;;;;;;;;10.00;9.00;;;;;;;;5018761;28;11437;-75
2022/12/05 20:13:59;;;;;;;;;9.75;9.50;;;;;;;;5012621;28;8822;-75
2022/12/05 20:16:25;;;;;;;;;9.00;9.00;;;;;;;;5037293;28;8927;-75
2022/12/05 20:18:52;;;;;;;;;12.00;11.00;;;;;;;;5018931;28;11565;-75
2022/12/05 20:21:18;;;;;;;;;11.00;10.50;;;;;;;;5016492;28;11534;-75
2022/12/05 20:23:44;;;;;;;;;16.50;11.00;;;;;;;;5017997;28;11662;-75
2022/12/05 20:26:14;;;;;;;;;12.50;10.00;;;;;;;;5017527;28;11653;-74
2022/12/05 20:28:39;;;;;;;;;12.50;11.00;;;;;;;;5017385;28;8928;-76
2022/12/05 20:31:18;;;;;;;;;17.50;13.25;;;;;;;;5017935;28;11561;-74
2022/12/05 20:33:43;;;;;;;;;17.00;13.00;;;;;;;;5019282;28;8885;-74
2022/12/05 20:36:13;;;;;;;;;13.25;11.00;;;;;;;;5019366;28;11573;-74
2022/12/05 20:38:38;;;;;;;;;15.00;14.00;;;;;;;;5020891;28;9076;-75
2022/12/05 20:41:05;;;;;;;;;12.75;11.50;;;;;;;;5021977;28;11619;-74
2022/12/05 20:43:31;;;;;;;;;15.25;14.00;;;;;;;;5022684;28;8825;-75
2022/12/05 20:46:01;;;;;;;;;13.25;13.25;;;;;;;;5028286;28;11668;-73
2022/12/05 20:48:27;;;;;;;;;13.75;13.75;;;;;;;;5022033;28;8843;-73
2022/12/05 20:50:53;;;;;;;;;15.25;13.00;;;;;;;;5019630;28;11602;-75
2022/12/05 20:53:18;;;;;;;;;13.75;11.75;;;;;;;;5022172;28;8822;-75
2022/12/05 20:55:43;;;;;;;;;12.75;10.00;;;;;;;;4987438;28;11489;-74
2022/12/05 20:58:08;;;;;;;;;12.50;9.75;;;;;;;;5028969;28;8816;-75
2022/12/05 21:00:34;;;;;;;;;13.00;13.00;;;;;;;;5020035;28;9741;-74
2022/12/05 21:02:59;;;;;;;;;10.75;10.00;;;;;;;;5023019;28;8830;-75
2022/12/05 21:05:24;;;;;;;;;14.25;10.00;;;;;;;;5022056;28;8791;-74
2022/12/05 21:07:49;;;;;;;;;16.00;16.00;;;;;;;;5020275;28;8792;-74
2022/12/05 21:10:15;;;;;;;;;12.25;11.00;;;;;;;;5018666;28;8838;-74
2022/12/05 21:12:40;;;;;;;;;10.00;10.00;;;;;;;;5021630;28;8919;-73
2022/12/05 21:15:05;;;;;;;;;8.75;7.00;;;;;;;;5021615;28;8829;-73
2022/12/05 21:17:31;;;;;;;;;9.75;8.00;;;;;;;;5021931;28;8832;-72
2022/12/05 21:19:56;;;;;;;;;8.50;8.50;;;;;;;;5022078;28;8808;-73
2022/12/05 21:22:21;;;;;;;;;14.00;9.75;;;;;;;;5021867;28;8838;-72
2022/12/05 21:24:47;;;;;;;;;12.75;10.25;;;;;;;;5020079;28;8908;-72
2022/12/05 21:27:12;;;;;;;;;11.75;10.00;;;;;;;;5022613;28;8780;-73
2022/12/05 21:29:37;;;;;;;;;12.50;10.00;;;;;;;;5022091;28;9014;-73
2022/12/05 21:32:03;;;;;;;;;11.75;9.75;;;;;;;;5021869;28;8907;-73
2022/12/05 21:34:28;;;;;;;;;14.00;14.00;;;;;;;;5019783;28;8830;-73
2022/12/05 21:36:53;;;;;;;;;15.00;14.75;;;;;;;;5019720;28;8885;-73
2022/12/05 21:39:19;;;;;;;;;13.25;13.00;;;;;;;;5021148;28;8847;-73
2022/12/05 21:41:44;;;;;;;;;13.00;11.00;;;;;;;;5020768;28;9591;-72
2022/12/05 21:44:09;;;;;;;;;13.25;12.50;;;;;;;;5021924;28;8818;-73
2022/12/05 21:46:34;;;;;;;;;15.50;14.25;;;;;;;;5020425;28;8825;-73
2022/12/05 21:49:00;;;;;;;;;11.50;11.50;;;;;;;;5021661;28;8790;-73
2022/12/05 21:51:25;;;;;;;;;15.25;15.00;;;;;;;;5022501;28;9575;-73
2022/12/05 21:53:51;;;;;;;;;14.00;11.50;;;;;;;;5020124;28;8830;-73
2022/12/05 21:56:17;;;;;;;;;15.50;14.50;;;;;;;;5015396;28;9565;-73
2022/12/05 21:58:44;;;;;;;;;21.50;16.25;;;;;;;;5020637;28;8811;-73
2022/12/05 22:01:10;;;;;;;;;11.50;10.00;;;;;;;;5022374;28;11551;-72
2022/12/05 22:03:36;;;;;;;;;10.50;10.50;;;;;;;;5020945;28;11477;-72
2022/12/05 22:06:02;;;;;;;;;13.00;13.00;;;;;;;;5019442;28;11587;-72
2022/12/05 22:08:31;;;;;;;;;8.00;8.00;;;;;;;;5020013;28;8814;-78
2022/12/05 22:11:16;;;;;;;;;8.00;7.25;;;;;;;;5017964;28;12207;-78
2022/12/05 22:13:43;;;;;;;;;8.75;7.00;;;;;;;;5010316;28;11475;-74
2022/12/05 22:16:08;;;;;;;;;5.25;5.00;;;;;;;;5029833;28;11490;-74
2022/12/05 22:18:34;;;;;;;;;6.00;6.00;;;;;;;;5048899;28;11425;-74
2022/12/05 22:21:01;;;;;;;;;7.00;5.25;;;;;;;;5050010;28;8844;-74
2022/12/05 22:23:26;;;;;;;;;6.00;5.00;;;;;;;;5051482;28;8825;-74
2022/12/05 22:26:03;;;;;;;;;3.00;3.00;;;;;;;;5050722;28;11404;-74
2022/12/05 22:28:31;;;;;;;;;2.75;2.50;;;;;;;;5051559;28;8801;-74
2022/12/05 22:30:57;;;;;;;;;3.50;2.50;;;;;;;;5049596;28;11448;-74
2022/12/05 22:33:23;;;;;;;;;9.75;4.00;;;;;;;;5049336;28;11422;-74
2022/12/05 22:35:52;;;;;;;;;5.00;3.00;;;;;;;;5050949;28;11439;-73
2022/12/05 22:38:18;;;;;;;;;5.25;3.00;;;;;;;;5051092;28;8902;-74
2022/12/05 22:40:43;;;;;;;;;3.00;3.00;;;;;;;;5050761;28;11414;-74
2022/12/05 22:43:08;;;;;;;;;2.25;2.25;;;;;;;;5050752;28;8921;-74
2022/12/05 22:45:34;;;;;;;;;2.00;2.00;;;;;;;;5050809;28;8821;-74
2022/12/05 22:47:59;;;;;;;;;6.25;5.00;;;;;;;;5051068;28;8837;-74
2022/12/05 22:50:27;;;;;;;;;6.00;6.00;;;;;;;;5050530;28;8863;-74
2022/12/05 22:52:52;;;;;;;;;3.00;3.00;;;;;;;;5050691;28;8820;-74
2022/12/05 22:55:17;;;;;;;;;5.25;3.00;;;;;;;;5050394;28;11544;-74
2022/12/05 22:57:43;;;;;;;;;3.00;3.00;;;;;;;;5050768;28;9613;-74
2022/12/05 23:00:08;;;;;;;;;3.25;2.00;;;;;;;;5049881;28;8813;-74
2022/12/05 23:02:34;;;;;;;;;2.75;2.75;;;;;;;;5050982;28;8845;-74
2022/12/05 23:04:59;;;;;;;;;4.00;3.00;;;;;;;;5050937;28;8813;-74
2022/12/05 23:07:24;;;;;;;;;5.00;5.00;;;;;;;;5049352;28;9036;-74
2022/12/05 23:09:50;;;;;;;;;6.50;4.50;;;;;;;;5049280;28;8910;-74
2022/12/05 23:12:15;;;;;;;;;6.00;5.00;;;;;;;;5050349;28;8797;-74
2022/12/05 23:14:40;;;;;;;;;3.00;3.00;;;;;;;;5050473;28;9170;-74
2022/12/05 23:17:06;;;;;;;;;7.00;5.25;;;;;;;;5050314;28;8817;-74
2022/12/05 23:19:36;;;;;;;;;7.00;7.00;;;;;;;;5048913;28;8825;-73
2022/12/05 23:22:02;;;;;;;;;12.00;9.00;;;;;;;;5050612;28;8798;-73
2022/12/05 23:24:27;;;;;;;;;8.00;6.50;;;;;;;;5050284;28;11432;-73
2022/12/05 23:26:52;;;;;;;;;7.25;6.25;;;;;;;;5050379;28;8802;-73
2022/12/05 23:29:18;;;;;;;;;6.25;5.75;;;;;;;;5050595;28;8825;-74
2022/12/05 23:31:44;;;;;;;;;10.00;9.00;;;;;;;;5049097;28;8833;-74
2022/12/05 23:34:10;;;;;;;;;13.00;9.75;;;;;;;;5048624;28;8849;-74
2022/12/05 23:36:35;;;;;;;;;11.50;9.75;;;;;;;;5050024;28;8801;-74
2022/12/05 23:39:01;;;;;;;;;8.00;7.00;;;;;;;;5050426;28;8789;-74
2022/12/05 23:41:26;;;;;;;;;12.00;9.75;;;;;;;;5048718;28;8955;-73
2022/12/05 23:43:52;;;;;;;;;6.75;6.75;;;;;;;;5050043;28;8797;-73
2022/12/05 23:46:18;;;;;;;;;10.00;8.50;;;;;;;;5050003;28;8836;-73
2022/12/05 23:48:44;;;;;;;;;12.00;8.00;;;;;;;;5049849;28;8796;-73
2022/12/05 23:51:11;;;;;;;;;9.50;9.00;;;;;;;;5049660;28;12216;-71
2022/12/05 23:53:38;;;;;;;;;9.25;8.00;;;;;;;;5049386;28;8812;-73
2022/12/05 23:56:07;;;;;;;;;7.75;5.75;;;;;;;;5049761;28;11539;-77
2022/12/05 23:58:33;;;;;;;;;5.25;5.25;;;;;;;;5049629;28;11402;-74
